Time;durP1;ratioP1;P1;durP2;ratioP2;P2;SDS_P1;SDS_P2;PMS_P1;PMS_P2;Temp;Humidity;BMP_temperature;BMP_pressure;BME280_temperature;BME280_humidity;BME280_pressure;Samples;Min_cycle;Max_cycle;Signal;HPM_P1;HPM_P2
2022/10/14 00:01:25;;;;;;;11.50;8.60;;;12.70;99.90;;;;;;5018306;28;20280;-80
2022/10/14 00:03:52;;;;;;;16.27;8.93;;;12.70;99.90;;;;;;5000355;28;20184;-79
2022/10/14 00:06:21;;;;;;;14.60;8.97;;;12.80;99.90;;;;;;5000963;28;20185;-80
2022/10/14 00:08:47;;;;;;;14.37;9.20;;;12.70;99.90;;;;;;5018470;28;20209;-79
2022/10/14 00:11:18;;;;;;;11.10;8.30;;;12.70;99.90;;;;;;5017003;28;20188;-80
2022/10/14 00:13:45;;;;;;;14.67;9.17;;;12.70;99.90;;;;;;4999089;28;20172;-79
2022/10/14 00:16:23;;;;;;;9.60;7.97;;;12.70;99.90;;;;;;5017454;28;20177;-79
2022/10/14 00:18:49;;;;;;;15.33;8.73;;;12.80;99.90;;;;;;4999391;28;20247;-79
2022/10/14 00:21:15;;;;;;;12.13;8.93;;;12.80;99.90;;;;;;5017033;28;20177;-80
2022/10/14 00:23:41;;;;;;;16.90;9.47;;;12.70;99.90;;;;;;5016534;28;20184;-79
2022/10/14 00:26:14;;;;;;;14.37;9.10;;;12.80;99.90;;;;;;4999427;28;20176;-79
2022/10/14 00:28:39;;;;;;;16.33;9.93;;;12.70;99.90;;;;;;5016793;28;20226;-79
2022/10/14 00:31:05;;;;;;;18.83;9.43;;;12.80;99.90;;;;;;4999068;28;20184;-79
2022/10/14 00:33:31;;;;;;;16.03;10.27;;;12.80;99.90;;;;;;5017336;28;20188;-79
2022/10/14 00:36:00;;;;;;;17.27;10.33;;;12.80;99.90;;;;;;4999712;28;20180;-79
2022/10/14 00:38:26;;;;;;;15.97;10.67;;;12.80;99.90;;;;;;5016615;28;20177;-79
2022/10/14 00:40:53;;;;;;;22.20;10.93;;;12.80;99.90;;;;;;4999766;28;20239;-79
2022/10/14 00:43:19;;;;;;;17.73;10.33;;;12.80;99.90;;;;;;4999935;28;20625;-79
2022/10/14 00:45:45;;;;;;;22.47;12.37;;;12.80;99.90;;;;;;5002314;28;20187;-79
2022/10/14 00:48:11;;;;;;;19.97;10.83;;;12.80;99.90;;;;;;5002991;28;20177;-80
2022/10/14 00:50:40;;;;;;;17.43;11.47;;;12.80;99.90;;;;;;5003649;28;20216;-79
2022/10/14 00:53:06;;;;;;;20.00;10.80;;;12.80;99.90;;;;;;5020860;28;20227;-79
2022/10/14 00:55:32;;;;;;;20.37;12.23;;;12.80;99.90;;;;;;5020800;28;20161;-79
2022/10/14 00:57:58;;;;;;;18.33;12.17;;;12.80;99.90;;;;;;5020189;28;20686;-79
2022/10/14 01:00:23;;;;;;;16.60;10.90;;;12.80;99.90;;;;;;5020775;28;20228;-79
2022/10/14 01:02:49;;;;;;;18.87;11.30;;;12.90;99.90;;;;;;5002623;28;20196;-79
2022/10/14 01:05:17;;;;;;;20.00;11.20;;;12.80;99.90;;;;;;5020710;28;20651;-79
2022/10/14 01:08:03;;;;;;;18.03;11.80;;;12.80;99.90;;;;;;5002975;28;20227;-79
2022/10/14 01:10:34;;;;;;;18.70;11.97;;;12.80;99.90;;;;;;5009544;28;20632;-79
2022/10/14 01:13:23;;;;;;;20.67;13.37;;;12.90;99.90;;;;;;5002883;28;20785;-79
2022/10/14 01:16:08;;;;;;;22.17;12.17;;;12.80;99.90;;;;;;5021093;28;20192;-79
2022/10/14 01:18:33;;;;;;;26.10;13.43;;;12.80;99.90;;;;;;5020626;28;20153;-79
2022/10/14 01:21:06;;;;;;;20.70;12.83;;;12.90;99.90;;;;;;5021061;28;20173;-79
2022/10/14 01:23:50;;;;;;;23.77;12.27;;;12.90;99.90;;;;;;5021369;28;20191;-79
2022/10/14 01:26:42;;;;;;;21.47;12.97;;;12.80;99.90;;;;;;5021223;28;20201;-79
2022/10/14 01:29:37;;;;;;;25.17;13.43;;;12.90;99.90;;;;;;5021161;28;20239;-79
2022/10/14 01:32:12;;;;;;;17.53;12.53;;;12.80;99.90;;;;;;5020113;28;20644;-79
2022/10/14 01:34:43;;;;;;;21.07;14.00;;;12.90;99.90;;;;;;5002688;28;20162;-79
2022/10/14 01:37:14;;;;;;;22.20;12.83;;;12.90;99.90;;;;;;5003249;28;20172;-79
2022/10/14 01:39:48;;;;;;;21.80;13.77;;;12.90;99.90;;;;;;5020817;28;20575;-80
2022/10/14 01:42:19;;;;;;;23.47;13.27;;;12.80;99.90;;;;;;5021059;28;20220;-79
2022/10/14 01:44:51;;;;;;;19.67;13.37;;;12.80;99.90;;;;;;5021350;28;20158;-79
2022/10/14 01:47:20;;;;;;;17.90;12.97;;;12.80;99.90;;;;;;5021741;28;20670;-79
2022/10/14 01:49:52;;;;;;;18.60;13.43;;;12.90;99.90;;;;;;5020845;28;20189;-79
2022/10/14 01:52:26;;;;;;;21.30;13.40;;;12.80;99.90;;;;;;5020565;28;20189;-78
2022/10/14 01:54:54;;;;;;;21.40;13.17;;;12.80;99.90;;;;;;5019679;28;20153;-78
2022/10/14 01:57:26;;;;;;;21.73;14.63;;;12.90;99.90;;;;;;5018691;28;20263;-79
2022/10/14 01:59:53;;;;;;;22.43;14.60;;;12.80;99.90;;;;;;5021013;28;20158;-78
2022/10/14 02:02:19;;;;;;;17.50;13.47;;;12.90;99.90;;;;;;5002312;28;20205;-79
2022/10/14 02:04:44;;;;;;;18.57;13.03;;;12.90;99.90;;;;;;5001641;28;20180;-78
2022/10/14 02:07:31;;;;;;;22.83;15.73;;;12.90;99.90;;;;;;5020002;28;20237;-78
2022/10/14 02:10:17;;;;;;;19.37;14.80;;;12.80;99.90;;;;;;5019606;28;20574;-78
2022/10/14 02:13:01;;;;;;;21.43;15.40;;;12.90;99.90;;;;;;5001300;28;20197;-78
2022/10/14 02:15:30;;;;;;;20.70;15.43;;;12.90;99.90;;;;;;5018486;28;20158;-78
2022/10/14 02:18:36;;;;;;;23.60;16.13;;;12.90;99.90;;;;;;5019193;28;20527;-79
2022/10/14 02:21:16;;;;;;;22.00;15.87;;;12.90;99.90;;;;;;5000383;28;20260;-79
2022/10/14 02:23:46;;;;;;;20.13;14.30;;;12.90;99.90;;;;;;5001006;28;20211;-78
2022/10/14 02:26:13;;;;;;;22.73;15.60;;;12.90;99.90;;;;;;5001415;28;20169;-78
2022/10/14 02:28:41;;;;;;;22.13;16.13;;;12.90;99.90;;;;;;5001221;28;20261;-78
2022/10/14 02:31:12;;;;;;;20.40;15.00;;;12.90;99.90;;;;;;5001554;28;20173;-78
2022/10/14 02:33:42;;;;;;;20.17;15.67;;;12.90;99.90;;;;;;5018647;28;20199;-79
2022/10/14 02:36:10;;;;;;;21.00;15.07;;;12.90;99.90;;;;;;5026969;28;20162;-78
2022/10/14 02:38:38;;;;;;;22.73;15.80;;;12.90;99.90;;;;;;5015081;28;20217;-78
2022/10/14 02:41:05;;;;;;;23.07;16.47;;;12.90;99.90;;;;;;5032431;28;20173;-78
2022/10/14 02:43:31;;;;;;;21.70;15.93;;;12.90;99.90;;;;;;5016926;28;20196;-78
2022/10/14 02:45:59;;;;;;;22.00;14.60;;;12.90;99.90;;;;;;5016837;28;20177;-78
2022/10/14 02:48:24;;;;;;;23.30;16.23;;;12.90;99.90;;;;;;5016847;28;20541;-78
2022/10/14 02:50:50;;;;;;;23.63;15.83;;;12.90;99.90;;;;;;5016992;28;20185;-78
2022/10/14 02:53:16;;;;;;;20.97;15.00;;;12.90;99.90;;;;;;5000111;28;20204;-78
2022/10/14 02:55:42;;;;;;;22.27;15.67;;;12.90;99.90;;;;;;4999290;28;20278;-78
2022/10/14 02:58:07;;;;;;;19.93;14.70;;;12.90;99.90;;;;;;4999299;28;20180;-79
2022/10/14 03:00:33;;;;;;;24.47;16.13;;;12.90;99.90;;;;;;5016490;28;20169;-78
2022/10/14 03:02:59;;;;;;;19.77;15.33;;;12.90;99.90;;;;;;4998607;28;20577;-78
2022/10/14 03:05:24;;;;;;;20.43;14.70;;;12.90;99.90;;;;;;4998326;28;20180;-79
2022/10/14 03:07:50;;;;;;;17.37;14.60;;;12.90;99.90;;;;;;4997979;28;20181;-78
2022/10/14 03:10:16;;;;;;;22.57;15.63;;;12.90;99.90;;;;;;5015951;28;20204;-78
2022/10/14 03:12:41;;;;;;;20.50;15.77;;;12.90;99.90;;;;;;4998617;28;20740;-78
2022/10/14 03:15:08;;;;;;;23.77;16.03;;;12.90;99.90;;;;;;4998693;28;20205;-78
2022/10/14 03:17:33;;;;;;;23.80;15.53;;;12.90;99.90;;;;;;4998680;28;20184;-78
2022/10/14 03:19:58;;;;;;;21.57;14.90;;;12.90;99.90;;;;;;4998301;28;20185;-78
2022/10/14 03:22:25;;;;;;;21.43;14.33;;;12.90;99.90;;;;;;5016025;28;20550;-78
2022/10/14 03:24:50;;;;;;;23.50;16.03;;;12.90;99.90;;;;;;5015235;28;20177;-78
2022/10/14 03:27:16;;;;;;;20.43;14.33;;;12.90;99.90;;;;;;5015027;28;20188;-78
2022/10/14 03:29:41;;;;;;;24.17;15.53;;;12.90;99.90;;;;;;4998399;28;20205;-79
2022/10/14 03:32:07;;;;;;;20.90;15.67;;;12.90;99.90;;;;;;4998653;28;20193;-78
2022/10/14 03:34:32;;;;;;;20.00;15.43;;;12.90;99.90;;;;;;5015498;28;20240;-78
2022/10/14 03:36:58;;;;;;;24.47;16.30;;;12.90;99.90;;;;;;5015709;28;20533;-78
2022/10/14 03:39:24;;;;;;;21.53;14.90;;;12.90;99.90;;;;;;5015738;28;20188;-79
2022/10/14 03:41:49;;;;;;;21.17;15.20;;;12.90;99.90;;;;;;5014782;28;20706;-78
2022/10/14 03:44:15;;;;;;;19.30;15.03;;;12.90;99.90;;;;;;5016042;28;20168;-78
2022/10/14 03:46:40;;;;;;;17.63;14.03;;;12.80;99.90;;;;;;4998751;28;20281;-78
2022/10/14 03:49:06;;;;;;;22.33;14.77;;;12.90;99.90;;;;;;5016076;28;20229;-78
2022/10/14 03:51:32;;;;;;;19.47;14.70;;;12.90;99.90;;;;;;4998151;28;20626;-78
2022/10/14 03:53:57;;;;;;;24.80;15.03;;;12.90;99.90;;;;;;5015948;28;20255;-78
2022/10/14 03:56:23;;;;;;;22.50;15.87;;;12.90;99.90;;;;;;4998052;28;20222;-78
2022/10/14 03:58:48;;;;;;;22.10;15.70;;;12.90;99.90;;;;;;4997057;28;20241;-78
2022/10/14 04:01:14;;;;;;;21.37;15.87;;;12.80;99.90;;;;;;5014697;28;20635;-78
2022/10/14 04:03:40;;;;;;;22.50;16.70;;;12.90;99.90;;;;;;4996389;28;20180;-78
2022/10/14 04:06:06;;;;;;;23.17;15.30;;;12.90;99.90;;;;;;4996349;28;20181;-78
2022/10/14 04:08:32;;;;;;;23.80;15.97;;;12.90;99.90;;;;;;5013575;28;20566;-77
2022/10/14 04:10:57;;;;;;;23.40;14.90;;;12.90;99.90;;;;;;5013395;28;20548;-78
2022/10/14 04:13:23;;;;;;;19.83;14.77;;;12.90;99.90;;;;;;4995908;28;20642;-77
2022/10/14 04:15:49;;;;;;;22.93;15.77;;;12.90;99.90;;;;;;5013743;28;20189;-78
2022/10/14 04:18:15;;;;;;;27.23;15.63;;;12.90;99.90;;;;;;5013208;28;20192;-78
2022/10/14 04:20:40;;;;;;;23.93;15.43;;;12.90;99.90;;;;;;5012248;28;20252;-78
2022/10/14 04:23:06;;;;;;;21.63;14.83;;;12.90;99.90;;;;;;5013377;28;20204;-77
2022/10/14 04:25:32;;;;;;;22.73;14.60;;;12.80;99.90;;;;;;5013339;28;20184;-77
2022/10/14 04:27:58;;;;;;;22.53;16.07;;;12.90;99.90;;;;;;4995554;28;20276;-77
2022/10/14 04:30:24;;;;;;;19.13;14.93;;;12.90;99.90;;;;;;5013348;28;20230;-78
2022/10/14 04:32:50;;;;;;;21.43;14.80;;;12.80;99.90;;;;;;5013744;28;20197;-78
2022/10/14 04:35:15;;;;;;;29.33;15.83;;;12.90;99.90;;;;;;5012956;28;20173;-77
2022/10/14 04:37:41;;;;;;;23.73;14.67;;;12.90;99.90;;;;;;5013122;28;20222;-77
2022/10/14 04:40:07;;;;;;;21.37;14.90;;;12.80;99.90;;;;;;4995598;28;20209;-77
2022/10/14 04:42:32;;;;;;;19.60;15.20;;;12.80;99.90;;;;;;5045824;22;20315;-75
2022/10/14 04:44:58;;;;;;;18.93;13.40;;;12.90;99.90;;;;;;5014598;28;20179;-76
2022/10/14 04:47:23;;;;;;;17.90;13.77;;;12.80;99.90;;;;;;5031072;28;20229;-76
2022/10/14 04:49:49;;;;;;;20.07;13.17;;;12.90;99.90;;;;;;5014450;28;20287;-76
2022/10/14 04:52:15;;;;;;;18.57;13.40;;;12.80;99.90;;;;;;5032258;28;20188;-76
2022/10/14 04:54:41;;;;;;;16.27;12.77;;;12.80;99.90;;;;;;5032407;28;20169;-76
2022/10/14 04:57:06;;;;;;;18.67;13.43;;;12.90;99.90;;;;;;5014457;28;20207;-76
2022/10/14 04:59:33;;;;;;;17.83;13.27;;;12.90;99.90;;;;;;5032187;28;20218;-76
2022/10/14 05:01:58;;;;;;;18.13;12.83;;;12.90;99.90;;;;;;5032163;28;20653;-76
2022/10/14 05:04:24;;;;;;;17.03;12.57;;;12.80;99.90;;;;;;5032086;28;20220;-76
2022/10/14 05:06:49;;;;;;;17.60;13.07;;;12.90;99.90;;;;;;5032182;28;20180;-76
2022/10/14 05:09:15;;;;;;;20.53;12.77;;;12.90;99.90;;;;;;5014348;28;20206;-76
2022/10/14 05:11:40;;;;;;;15.20;12.10;;;12.90;99.90;;;;;;5032647;28;20482;-76
2022/10/14 05:14:06;;;;;;;16.20;11.90;;;12.90;99.90;;;;;;5014387;28;20174;-76
2022/10/14 05:16:32;;;;;;;15.87;12.00;;;12.90;99.90;;;;;;5032058;28;20239;-76
2022/10/14 05:18:57;;;;;;;17.07;12.13;;;12.90;99.90;;;;;;5032017;28;20260;-76
2022/10/14 05:21:23;;;;;;;17.00;11.57;;;12.90;99.90;;;;;;5032044;28;20211;-76
2022/10/14 05:23:48;;;;;;;14.67;11.90;;;12.90;99.90;;;;;;5032177;28;20275;-76
2022/10/14 05:26:14;;;;;;;17.17;11.10;;;12.90;99.90;;;;;;5031995;28;20172;-76
2022/10/14 05:28:40;;;;;;;15.13;10.80;;;12.90;99.90;;;;;;5032174;28;20203;-76
2022/10/14 05:31:05;;;;;;;15.13;11.17;;;12.90;99.90;;;;;;5031960;28;20310;-76
2022/10/14 05:33:31;;;;;;;15.73;11.50;;;12.90;99.90;;;;;;5035560;28;20218;-76
2022/10/14 05:35:57;;;;;;;14.87;10.90;;;12.90;99.90;;;;;;5017803;28;20176;-76
2022/10/14 05:38:22;;;;;;;16.50;10.63;;;12.90;99.90;;;;;;5035597;28;20165;-76
2022/10/14 05:40:55;;;;;;;16.50;10.60;;;12.90;99.90;;;;;;5035471;28;20643;-76
2022/10/14 05:43:21;;;;;;;15.43;10.73;;;12.90;99.90;;;;;;5035334;28;20204;-76
2022/10/14 05:45:46;;;;;;;14.13;10.23;;;12.90;99.90;;;;;;5035451;28;20195;-76
2022/10/14 05:48:12;;;;;;;12.17;9.97;;;12.90;99.90;;;;;;5018095;28;20686;-76
2022/10/14 05:50:37;;;;;;;15.07;10.57;;;12.90;99.90;;;;;;5035285;28;20212;-76
2022/10/14 05:53:03;;;;;;;13.23;9.70;;;12.90;99.90;;;;;;5035381;28;20267;-76
2022/10/14 05:55:30;;;;;;;14.20;10.60;;;12.90;99.90;;;;;;5035324;28;20180;-76
2022/10/14 05:57:56;;;;;;;17.67;10.93;;;12.90;99.90;;;;;;5035277;28;20256;-76
2022/10/14 06:00:21;;;;;;;14.10;9.90;;;12.90;99.90;;;;;;5035437;28;20199;-76
2022/10/14 06:02:47;;;;;;;19.07;11.07;;;12.90;99.90;;;;;;5017332;28;20196;-76
2022/10/14 06:05:13;;;;;;;15.67;10.23;;;12.90;99.90;;;;;;5035060;28;20172;-76
2022/10/14 06:07:38;;;;;;;12.97;9.97;;;13.00;99.90;;;;;;5035229;28;20168;-76
2022/10/14 06:10:04;;;;;;;12.83;9.33;;;12.90;99.90;;;;;;5034835;28;20200;-76
2022/10/14 06:12:29;;;;;;;12.27;9.43;;;12.90;99.90;;;;;;5034843;28;20237;-76
2022/10/14 06:14:55;;;;;;;11.27;8.60;;;12.90;99.90;;;;;;5034805;28;20168;-76
2022/10/14 06:17:21;;;;;;;15.87;9.67;;;13.00;99.90;;;;;;5035034;28;20165;-76
2022/10/14 06:19:46;;;;;;;11.53;9.73;;;12.90;99.90;;;;;;5016926;28;20227;-76
2022/10/14 06:22:11;;;;;;;13.13;9.67;;;13.00;99.90;;;;;;5017187;28;20192;-76
2022/10/14 06:24:37;;;;;;;13.30;9.40;;;13.00;99.90;;;;;;5034911;28;20527;-75
2022/10/14 06:27:03;;;;;;;14.73;10.43;;;13.00;99.90;;;;;;5035418;28;20188;-77
2022/10/14 06:29:36;;;;;;;12.57;9.43;;;13.00;99.90;;;;;;5035414;28;20185;-77
2022/10/14 06:32:02;;;;;;;11.70;9.23;;;13.00;99.90;;;;;;5035002;28;20196;-77
2022/10/14 06:34:28;;;;;;;16.20;10.40;;;13.10;99.90;;;;;;5034783;28;20316;-76
2022/10/14 06:36:53;;;;;;;13.23;9.30;;;13.10;99.90;;;;;;5034908;28;20251;-77
2022/10/14 06:39:19;;;;;;;12.33;9.47;;;13.10;99.90;;;;;;5017155;28;20172;-77
2022/10/14 06:41:45;;;;;;;15.70;10.37;;;13.10;99.90;;;;;;5016832;28;20234;-76
2022/10/14 06:44:10;;;;;;;12.23;10.33;;;13.10;99.90;;;;;;5034816;28;20168;-76
2022/10/14 06:46:36;;;;;;;12.20;10.17;;;13.10;99.90;;;;;;5018059;28;20172;-77
2022/10/14 06:49:01;;;;;;;12.37;10.60;;;13.10;99.90;;;;;;5021472;28;20211;-79
2022/10/14 06:51:27;;;;;;;13.80;10.67;;;13.10;99.90;;;;;;5018041;28;20276;-76
2022/10/14 06:53:52;;;;;;;12.63;9.87;;;13.10;99.90;;;;;;5016692;28;20184;-77
2022/10/14 06:56:18;;;;;;;11.70;9.77;;;13.10;99.90;;;;;;5016952;28;20654;-77
2022/10/14 06:58:43;;;;;;;13.43;10.33;;;13.10;99.90;;;;;;5035463;28;20182;-77
2022/10/14 07:01:09;;;;;;;12.67;8.93;;;13.20;99.90;;;;;;5016668;28;20183;-77
2022/10/14 07:03:37;;;;;;;10.97;9.50;;;13.20;99.90;;;;;;5034155;28;20196;-77
2022/10/14 07:06:05;;;;;;;13.17;8.93;;;13.20;99.90;;;;;;5034402;28;20199;-77
2022/10/14 07:08:31;;;;;;;12.57;9.30;;;13.20;99.90;;;;;;5034027;28;20279;-77
2022/10/14 07:10:56;;;;;;;11.83;8.70;;;13.20;99.90;;;;;;5015994;28;20199;-76
2022/10/14 07:13:22;;;;;;;11.37;8.50;;;13.20;99.90;;;;;;5015985;28;20222;-76
2022/10/14 07:15:50;;;;;;;11.20;7.90;;;13.30;99.90;;;;;;5016085;28;20303;-76
2022/10/14 07:18:15;;;;;;;9.63;7.87;;;13.30;99.90;;;;;;5033856;28;20538;-76
2022/10/14 07:20:41;;;;;;;11.77;7.63;;;13.30;99.90;;;;;;5034052;28;20169;-76
2022/10/14 07:23:06;;;;;;;11.97;7.40;;;13.30;99.90;;;;;;5034123;28;20200;-76
2022/10/14 07:25:32;;;;;;;10.57;6.73;;;13.30;99.90;;;;;;5033932;28;20654;-76
2022/10/14 07:27:58;;;;;;;9.83;7.30;;;13.30;99.90;;;;;;5033873;28;20546;-76
2022/10/14 07:30:24;;;;;;;11.40;7.23;;;13.40;99.90;;;;;;5016013;28;20196;-76
2022/10/14 07:32:49;;;;;;;9.47;6.97;;;13.40;99.90;;;;;;5015945;28;20189;-76
2022/10/14 07:35:16;;;;;;;11.23;7.47;;;13.40;99.90;;;;;;5034461;28;20246;-77
2022/10/14 07:37:41;;;;;;;8.00;7.03;;;13.40;99.90;;;;;;5033979;28;20173;-76
2022/10/14 07:40:08;;;;;;;12.07;7.43;;;13.40;99.90;;;;;;5034221;28;20650;-77
2022/10/14 07:42:34;;;;;;;9.00;6.47;;;13.40;99.90;;;;;;5015746;28;20239;-76
2022/10/14 07:44:59;;;;;;;8.33;6.80;;;13.40;99.90;;;;;;5034107;28;20560;-76
2022/10/14 07:47:25;;;;;;;10.50;7.40;;;13.50;99.90;;;;;;5033576;28;20545;-76
2022/10/14 07:49:51;;;;;;;7.53;6.73;;;13.50;99.90;;;;;;5033497;28;20709;-77
2022/10/14 07:52:18;;;;;;;11.67;7.60;;;13.50;99.90;;;;;;5015712;28;20207;-77
2022/10/14 07:54:44;;;;;;;9.70;7.13;;;13.50;99.90;;;;;;5033349;28;20172;-76
2022/10/14 07:57:11;;;;;;;8.80;6.83;;;13.50;99.90;;;;;;5033339;28;20172;-77
2022/10/14 07:59:37;;;;;;;14.20;6.90;;;13.50;99.90;;;;;;5015571;28;20560;-76
2022/10/14 08:02:03;;;;;;;10.33;6.67;;;13.50;99.90;;;;;;5015429;28;20208;-77
2022/10/14 08:04:28;;;;;;;8.30;7.10;;;13.60;99.90;;;;;;5033316;28;20229;-76
2022/10/14 08:06:54;;;;;;;8.73;6.70;;;13.50;99.90;;;;;;5015477;28;20183;-76
2022/10/14 08:09:20;;;;;;;6.73;6.03;;;13.60;99.90;;;;;;5033044;28;20550;-76
2022/10/14 08:11:46;;;;;;;11.23;6.40;;;13.60;99.90;;;;;;5033054;28;20179;-76
2022/10/14 08:14:12;;;;;;;7.87;6.87;;;13.60;99.90;;;;;;5033161;28;20176;-76
2022/10/14 08:16:38;;;;;;;10.80;6.10;;;13.60;99.90;;;;;;5033156;28;20187;-77
2022/10/14 08:19:09;;;;;;;6.87;5.80;;;13.60;99.90;;;;;;5015396;28;20184;-77
2022/10/14 08:21:35;;;;;;;9.87;5.73;;;13.70;99.90;;;;;;5033302;28;20632;-77
2022/10/14 08:24:01;;;;;;;9.07;6.37;;;13.70;99.90;;;;;;5033216;28;20184;-77
2022/10/14 08:26:32;;;;;;;8.47;6.00;;;13.70;99.90;;;;;;5033072;28;20176;-77
2022/10/14 08:29:01;;;;;;;11.00;5.70;;;13.80;99.90;;;;;;5015154;28;20674;-77
2022/10/14 08:31:27;;;;;;;8.07;5.57;;;13.80;99.90;;;;;;5032956;28;20176;-76
2022/10/14 08:33:53;;;;;;;6.50;5.40;;;13.80;99.90;;;;;;5015207;28;20232;-77
2022/10/14 08:36:19;;;;;;;5.43;4.73;;;13.90;99.90;;;;;;5015246;28;20203;-76
2022/10/14 08:38:46;;;;;;;5.97;5.17;;;13.90;99.90;;;;;;5015136;28;20188;-77
2022/10/14 08:41:11;;;;;;;7.43;5.50;;;13.90;99.90;;;;;;5015340;28;20180;-77
2022/10/14 08:43:50;;;;;;;6.33;5.00;;;14.00;99.90;;;;;;5032657;28;20254;-77
2022/10/14 08:46:25;;;;;;;6.23;5.50;;;14.00;99.90;;;;;;5015151;28;20172;-77
2022/10/14 08:48:58;;;;;;;7.47;5.10;;;14.00;99.90;;;;;;5032843;28;20242;-77
2022/10/14 08:51:24;;;;;;;7.67;4.70;;;14.10;99.90;;;;;;5033303;28;20152;-77
2022/10/14 08:53:55;;;;;;;6.30;4.70;;;14.10;99.90;;;;;;5032664;28;20241;-77
2022/10/14 08:56:23;;;;;;;6.40;4.97;;;14.10;99.90;;;;;;5015008;28;20644;-77
2022/10/14 08:58:53;;;;;;;5.17;4.50;;;14.10;99.90;;;;;;5032649;28;20180;-76
2022/10/14 09:01:26;;;;;;;4.90;4.27;;;14.20;99.90;;;;;;5032642;28;20175;-76
2022/10/14 09:03:56;;;;;;;5.53;4.00;;;14.20;99.90;;;;;;5032611;28;20192;-76
2022/10/14 09:06:25;;;;;;;5.00;3.90;;;14.20;99.90;;;;;;5017027;28;20184;-76
2022/10/14 09:08:56;;;;;;;6.87;4.20;;;14.20;99.90;;;;;;5036470;28;20612;-75
2022/10/14 09:11:23;;;;;;;5.83;3.70;;;14.30;99.90;;;;;;5036630;28;20160;-76
2022/10/14 09:14:12;;;;;;;4.70;3.77;;;14.30;99.90;;;;;;5018426;28;20192;-76
2022/10/14 09:16:40;;;;;;;5.10;3.30;;;14.30;99.90;;;;;;5037326;28;20156;-76
2022/10/14 09:19:19;;;;;;;4.03;3.67;;;14.30;99.90;;;;;;5036471;28;20203;-76
2022/10/14 09:21:49;;;;;;;3.17;2.87;;;14.30;99.90;;;;;;5036560;28;20168;-76
2022/10/14 09:24:20;;;;;;;4.47;3.10;;;14.40;99.90;;;;;;5018520;28;20169;-76
2022/10/14 09:26:52;;;;;;;3.90;3.50;;;14.30;99.90;;;;;;5036495;28;20160;-76
2022/10/14 09:29:26;;;;;;;3.20;2.90;;;14.40;99.90;;;;;;5036363;28;20576;-76
2022/10/14 09:31:57;;;;;;;3.17;2.87;;;14.40;99.90;;;;;;5018347;28;20164;-76
2022/10/14 09:34:37;;;;;;;3.30;2.67;;;14.40;99.90;;;;;;5036121;28;20243;-76
2022/10/14 09:37:33;;;;;;;4.83;3.20;;;14.50;99.90;;;;;;5036323;28;20161;-76
2022/10/14 09:40:19;;;;;;;5.17;3.13;;;14.50;99.90;;;;;;5034509;28;20184;-76
2022/10/14 09:43:09;;;;;;;5.23;3.50;;;14.60;99.90;;;;;;5017938;28;20682;-76
2022/10/14 09:45:49;;;;;;;4.57;3.00;;;14.60;99.90;;;;;;5037125;28;20247;-78
2022/10/14 09:48:43;;;;;;;4.17;3.00;;;14.60;99.90;;;;;;5039242;28;20172;-79
2022/10/14 09:51:10;;;;;;;2.90;2.67;;;14.60;99.90;;;;;;5038044;28;20157;-78
2022/10/14 09:53:40;;;;;;;4.20;3.10;;;14.60;99.90;;;;;;5019531;28;20220;-79
2022/10/14 09:56:08;;;;;;;4.00;2.80;;;14.60;99.90;;;;;;5039548;28;20157;-79
2022/10/14 09:58:54;;;;;;;3.97;2.93;;;14.60;99.90;;;;;;5041634;28;20178;-78
2022/10/14 10:01:41;;;;;;;5.20;3.40;;;14.60;99.90;;;;;;5019332;28;20176;-78
2022/10/14 10:04:35;;;;;;;3.53;2.90;;;14.70;99.90;;;;;;5037103;28;20266;-79
2022/10/14 10:07:05;;;;;;;3.00;2.70;;;14.70;99.90;;;;;;5025534;28;20602;-79
2022/10/14 10:09:31;;;;;;;2.97;2.57;;;14.70;99.90;;;;;;5037398;28;20223;-78
2022/10/14 10:11:56;;;;;;;3.83;3.30;;;14.70;99.90;;;;;;5037836;28;20230;-79
2022/10/14 10:14:28;;;;;;;3.20;2.90;;;14.70;99.90;;;;;;5038154;28;20196;-78
2022/10/14 10:17:08;;;;;;;5.17;3.27;;;14.80;99.90;;;;;;5037355;28;20153;-78
2022/10/14 10:19:41;;;;;;;3.37;2.60;;;14.70;99.90;;;;;;5039406;28;20240;-79
2022/10/14 10:22:23;;;;;;;3.87;2.80;;;14.80;99.90;;;;;;5021368;28;20428;-79
2022/10/14 10:25:06;;;;;;;3.67;2.60;;;14.80;99.90;;;;;;5039237;28;20623;-79
2022/10/14 10:27:38;;;;;;;4.00;3.00;;;14.80;99.90;;;;;;5037824;28;20176;-78
2022/10/14 10:30:16;;;;;;;3.70;2.93;;;14.80;99.90;;;;;;5037185;28;20248;-79
2022/10/14 10:32:50;;;;;;;3.20;2.90;;;14.80;99.90;;;;;;5036865;28;20242;-78
2022/10/14 10:35:35;;;;;;;3.20;2.90;;;14.80;99.90;;;;;;5037266;28;20523;-78
2022/10/14 10:38:35;;;;;;;5.80;2.87;;;14.80;99.90;;;;;;5018907;28;20179;-78
2022/10/14 10:41:25;;;;;;;3.17;2.57;;;14.80;99.90;;;;;;5037049;28;20161;-78
2022/10/14 10:44:12;;;;;;;3.17;2.70;;;14.70;99.90;;;;;;5129018;22;20212;-95
2022/10/14 10:47:04;;;;;;;4.63;3.10;;;14.80;99.90;;;;;;5061680;28;20200;-94
2022/10/14 10:49:45;;;;;;;4.43;2.90;;;14.90;99.90;;;;;;5061539;28;20168;-95
2022/10/14 10:52:36;;;;;;;6.67;3.43;;;14.90;99.90;;;;;;5060361;28;20147;-95
2022/10/14 10:55:39;;;;;;;4.10;2.70;;;14.90;99.90;;;;;;5060827;28;20204;-95
2022/10/14 10:58:45;;;;;;;3.80;2.87;;;14.90;99.90;;;;;;5060945;28;20208;-95
2022/10/14 11:01:56;;;;;;;3.63;2.97;;;14.90;99.90;;;;;;5043474;28;20224;-96
2022/10/14 11:04:55;;;;;;;4.10;2.90;;;14.90;99.90;;;;;;5059964;28;20145;-94
2022/10/14 11:14:03;;;;;;;6.50;3.83;;;15.00;99.90;;;;;;4968442;28;20299;-77
2022/10/14 11:17:15;;;;;;;4.03;3.23;;;15.00;99.90;;;;;;4994784;28;20209;-76
2022/10/14 11:19:52;;;;;;;4.20;3.40;;;15.00;99.90;;;;;;4933763;28;20191;-77
2022/10/14 11:22:46;;;;;;;6.23;3.80;;;15.00;99.90;;;;;;4977093;28;20205;-76
2022/10/14 11:25:39;;;;;;;6.13;3.67;;;15.00;99.90;;;;;;4977177;28;20174;-77
2022/10/14 11:28:17;;;;;;;7.80;3.90;;;15.00;99.90;;;;;;4994511;28;20162;-77
2022/10/14 11:31:07;;;;;;;4.47;3.90;;;15.00;99.90;;;;;;4993666;28;20212;-77
2022/10/14 11:34:06;;;;;;;7.60;4.17;;;15.00;99.90;;;;;;4994468;28;20200;-76
2022/10/14 11:36:56;;;;;;;8.73;4.27;;;15.00;99.90;;;;;;4994296;28;20260;-76
2022/10/14 11:39:44;;;;;;;8.90;4.43;;;14.90;99.90;;;;;;4994476;28;20648;-76
2022/10/14 11:42:19;;;;;;;7.43;4.63;;;14.90;99.90;;;;;;4994438;28;20230;-76
2022/10/14 11:44:47;;;;;;;6.03;4.33;;;14.90;99.90;;;;;;4994210;28;20543;-76
2022/10/14 11:47:33;;;;;;;6.53;4.67;;;14.90;99.90;;;;;;4994129;28;20172;-76
2022/10/14 11:50:17;;;;;;;7.13;5.07;;;14.90;99.90;;;;;;4976600;28;20197;-76
2022/10/14 11:52:56;;;;;;;7.87;5.33;;;15.00;99.90;;;;;;4994387;28;20193;-76
2022/10/14 11:55:28;;;;;;;6.23;5.10;;;15.00;99.90;;;;;;4976608;28;20198;-76
2022/10/14 11:57:58;;;;;;;6.37;4.83;;;15.00;99.90;;;;;;4976589;28;20328;-76
2022/10/14 12:00:52;;;;;;;9.47;5.37;;;15.00;99.90;;;;;;4976804;28;20181;-76
2022/10/14 12:03:58;;;;;;;6.13;5.40;;;15.00;99.90;;;;;;4976441;28;20251;-76
2022/10/14 12:06:26;;;;;;;11.10;5.40;;;15.10;99.90;;;;;;4976637;28;20213;-76
2022/10/14 12:08:56;;;;;;;9.90;6.10;;;15.10;99.90;;;;;;4994240;28;20196;-76
2022/10/14 12:11:45;;;;;;;10.10;5.67;;;15.10;99.90;;;;;;4993675;28;20652;-76
2022/10/14 12:14:32;;;;;;;8.23;5.90;;;15.20;99.90;;;;;;4993556;28;20228;-76
2022/10/14 12:17:00;;;;;;;9.90;5.90;;;15.20;99.90;;;;;;4993674;28;20174;-76
2022/10/14 12:19:27;;;;;;;12.80;6.90;;;15.20;99.90;;;;;;4993684;28;20182;-76
2022/10/14 12:22:23;;;;;;;11.47;6.33;;;15.20;99.90;;;;;;4976194;28;20240;-76
2022/10/14 12:24:57;;;;;;;10.63;5.70;;;15.20;99.90;;;;;;4993598;28;20573;-77
2022/10/14 12:27:25;;;;;;;9.27;5.60;;;15.30;99.90;;;;;;4976206;28;20336;-76
2022/10/14 12:29:54;;;;;;;6.23;5.17;;;15.30;99.90;;;;;;4993376;28;20201;-76
2022/10/14 12:32:23;;;;;;;9.73;5.80;;;15.30;99.90;;;;;;4993489;28;20333;-76
2022/10/14 12:34:52;;;;;;;10.20;6.23;;;15.30;99.90;;;;;;4993420;28;20170;-76
2022/10/14 12:37:24;;;;;;;9.67;5.80;;;15.30;99.90;;;;;;4976009;28;20264;-76
2022/10/14 12:40:13;;;;;;;8.30;6.13;;;15.30;99.90;;;;;;4993377;28;20178;-76
2022/10/14 12:43:13;;;;;;;14.50;6.53;;;15.30;99.90;;;;;;4993231;28;20225;-76
2022/10/14 12:46:06;;;;;;;11.43;6.57;;;15.40;99.90;;;;;;4993683;28;20162;-76
2022/10/14 12:48:37;;;;;;;11.37;6.43;;;15.40;99.90;;;;;;4962074;28;20186;-76
2022/10/14 12:51:21;;;;;;;7.23;5.93;;;15.40;99.90;;;;;;4975926;28;20726;-76
2022/10/14 12:54:03;;;;;;;10.33;5.93;;;15.40;99.90;;;;;;4975798;28;20225;-76
2022/10/14 12:56:33;;;;;;;8.33;6.43;;;15.40;99.90;;;;;;4975812;28;20220;-76
2022/10/14 12:59:04;;;;;;;12.50;6.77;;;15.40;99.90;;;;;;4975833;28;20188;-76
2022/10/14 13:01:30;;;;;;;10.73;6.83;;;15.40;99.90;;;;;;4975848;28;20300;-76
2022/10/14 13:04:03;;;;;;;10.20;6.83;;;15.40;99.90;;;;;;4993317;28;20553;-76